createdAt,value
2022-12-26T00:01:06.116Z,5.57
2022-12-26T00:03:33.994Z,6.00
2022-12-26T00:06:03.212Z,6.07
2022-12-26T00:08:31.065Z,6.05
2022-12-26T00:10:58.980Z,6.18
2022-12-26T00:13:38.570Z,5.95
2022-12-26T00:16:10.422Z,6.72
2022-12-26T00:18:38.699Z,5.97
2022-12-26T00:21:08.254Z,6.30
2022-12-26T00:23:37.114Z,5.70
2022-12-26T00:26:06.267Z,6.60
2022-12-26T00:28:34.415Z,6.72
2022-12-26T00:31:05.492Z,6.63
2022-12-26T00:33:34.256Z,6.32
2022-12-26T00:36:03.563Z,6.45
2022-12-26T00:38:32.857Z,7.18
2022-12-26T00:41:01.587Z,6.60
2022-12-26T00:43:29.432Z,6.55
2022-12-26T00:45:57.883Z,6.13
2022-12-26T00:48:25.797Z,7.28
2022-12-26T00:50:53.785Z,6.93
2022-12-26T00:53:21.765Z,6.93
2022-12-26T00:55:51.394Z,6.97
2022-12-26T00:58:19.269Z,6.60
2022-12-26T01:00:47.148Z,6.68
2022-12-26T01:03:16.018Z,7.00
2022-12-26T01:05:44.834Z,6.55
2022-12-26T01:08:20.165Z,6.93
2022-12-26T01:10:53.574Z,7.28
2022-12-26T01:13:21.384Z,6.85
2022-12-26T01:15:50.675Z,6.60
2022-12-26T01:18:18.761Z,6.95
2022-12-26T01:20:46.807Z,6.47
2022-12-26T01:23:14.755Z,7.15
2022-12-26T01:26:17.014Z,6.43
2022-12-26T01:28:31.741Z,6.47
2022-12-26T01:31:02.994Z,6.30
2022-12-26T01:33:31.107Z,7.25
2022-12-26T01:35:59.207Z,6.45
2022-12-26T01:38:27.544Z,6.75
2022-12-26T01:41:15.584Z,7.13
2022-12-26T01:43:51.376Z,6.85
2022-12-26T01:46:22.933Z,7.28
2022-12-26T01:48:52.484Z,7.03
2022-12-26T01:51:22.942Z,7.30
2022-12-26T01:53:53.850Z,7.57
2022-12-26T01:56:24.902Z,6.93
2022-12-26T01:58:57.349Z,6.68
2022-12-26T02:01:30.359Z,7.30
2022-12-26T02:04:18.370Z,7.05
2022-12-26T02:06:46.252Z,6.88
2022-12-26T02:09:14.583Z,7.55
2022-12-26T02:11:45.831Z,8.40
2022-12-26T02:14:16.149Z,7.68
2022-12-26T02:16:44.422Z,7.25
2022-12-26T02:19:27.199Z,7.97
2022-12-26T02:22:21.352Z,7.93
2022-12-26T02:25:11.590Z,7.85
2022-12-26T02:27:58.255Z,8.25
2022-12-26T02:30:37.642Z,8.50
2022-12-26T02:33:34.309Z,8.05
2022-12-26T02:36:22.891Z,7.75
2022-12-26T02:39:42.619Z,7.80
2022-12-26T02:42:01.034Z,8.38
2022-12-26T02:44:56.933Z,7.93
2022-12-26T02:47:34.663Z,7.85
2022-12-26T02:50:27.528Z,7.72
2022-12-26T02:53:23.289Z,8.07
2022-12-26T02:56:12.016Z,7.40
2022-12-26T02:59:01.885Z,6.93
2022-12-26T03:02:07.724Z,7.53
2022-12-26T03:04:57.706Z,6.90
2022-12-26T03:07:47.245Z,7.57
2022-12-26T03:10:37.270Z,7.18
2022-12-26T03:13:14.498Z,7.65
2022-12-26T03:16:04.195Z,6.78
2022-12-26T03:18:57.731Z,6.57
2022-12-26T03:21:27.535Z,6.20
2022-12-26T03:23:57.806Z,6.20
2022-12-26T03:26:39.943Z,6.50
2022-12-26T03:29:27.925Z,6.70
2022-12-26T03:31:55.907Z,6.68
2022-12-26T03:34:24.192Z,6.68
2022-12-26T03:37:23.490Z,7.10
2022-12-26T03:40:22.979Z,7.38
2022-12-26T03:43:16.873Z,8.00
2022-12-26T03:46:09.608Z,7.45
2022-12-26T03:49:03.888Z,7.53
2022-12-26T03:51:53.968Z,7.05
2022-12-26T03:54:45.838Z,7.97
2022-12-26T03:57:31.752Z,7.35
2022-12-26T04:00:23.562Z,8.20
2022-12-26T04:03:12.629Z,8.18
2022-12-26T04:06:04.136Z,9.13
2022-12-26T04:08:55.814Z,7.60
2022-12-26T04:11:42.541Z,8.38
2022-12-26T04:14:40.276Z,7.93
2022-12-26T04:17:33.483Z,8.38
2022-12-26T04:20:10.020Z,8.60
2022-12-26T04:23:05.238Z,8.05
2022-12-26T04:25:56.216Z,8.40
2022-12-26T04:28:43.072Z,8.40
2022-12-26T04:31:33.380Z,7.95
2022-12-26T04:34:21.775Z,8.18
2022-12-26T04:37:14.407Z,8.25
2022-12-26T04:40:04.796Z,8.45
2022-12-26T04:42:52.325Z,7.90
2022-12-26T04:45:22.711Z,8.25
2022-12-26T04:48:05.711Z,8.80
2022-12-26T04:50:33.499Z,8.05
2022-12-26T04:53:01.442Z,8.55
2022-12-26T04:55:30.892Z,8.10
2022-12-26T04:57:59.311Z,8.63
2022-12-26T05:00:29.661Z,7.53
2022-12-26T05:03:18.970Z,8.43
2022-12-26T05:06:08.333Z,7.82
2022-12-26T05:08:56.708Z,7.72
2022-12-26T05:11:25.254Z,7.65
2022-12-26T05:13:54.129Z,7.03
2022-12-26T05:16:41.573Z,7.70
2022-12-26T05:19:30.307Z,6.75
2022-12-26T05:22:18.777Z,6.32
2022-12-26T05:25:04.596Z,6.00
2022-12-26T05:27:55.600Z,5.22
2022-12-26T05:30:24.208Z,5.82
2022-12-26T05:33:11.453Z,5.25
2022-12-26T05:35:40.214Z,5.40
2022-12-26T05:38:10.979Z,5.80
2022-12-26T05:40:38.834Z,5.43
2022-12-26T05:43:06.749Z,5.22
2022-12-26T05:45:34.459Z,4.53
2022-12-26T05:48:03.932Z,5.10
2022-12-26T05:50:31.854Z,5.40
2022-12-26T05:53:00.650Z,5.65
2022-12-26T05:55:28.503Z,5.38
2022-12-26T05:57:56.673Z,5.18
2022-12-26T06:00:24.404Z,5.20
2022-12-26T06:02:52.335Z,5.75
2022-12-26T06:05:21.570Z,6.20
2022-12-26T06:07:49.404Z,6.20
2022-12-26T06:10:17.350Z,6.75
2022-12-26T06:12:47.542Z,7.10
2022-12-26T06:15:15.362Z,8.15
2022-12-26T06:17:43.150Z,7.55
2022-12-26T06:20:11.481Z,8.48
2022-12-26T06:22:40.671Z,7.63
2022-12-26T06:25:09.834Z,8.02
2022-12-26T06:27:37.638Z,8.20
2022-12-26T06:30:06.277Z,7.90
2022-12-26T06:32:34.893Z,8.05
2022-12-26T06:35:03.148Z,8.32
2022-12-26T06:37:31.460Z,8.30
2022-12-26T06:40:00.706Z,8.48
2022-12-26T06:42:29.477Z,8.60
2022-12-26T06:44:57.241Z,8.30
2022-12-26T06:47:25.103Z,8.38
2022-12-26T06:49:52.878Z,7.80
2022-12-26T06:52:20.704Z,7.43
2022-12-26T06:54:48.453Z,6.55
2022-12-26T06:57:17.669Z,7.13
2022-12-26T06:59:45.476Z,7.20
2022-12-26T07:02:13.513Z,7.72
2022-12-26T07:04:41.415Z,7.03
2022-12-26T07:07:09.203Z,7.15
2022-12-26T07:09:37.063Z,7.65
2022-12-26T07:12:05.186Z,6.70
2022-12-26T07:14:35.636Z,6.63
2022-12-26T07:17:03.361Z,5.97
2022-12-26T07:19:31.101Z,6.15
2022-12-26T07:21:59.191Z,6.40
2022-12-26T07:24:26.956Z,6.90
2022-12-26T07:26:54.797Z,6.47
2022-12-26T07:29:22.946Z,6.00
2022-12-26T07:31:52.132Z,6.07
2022-12-26T07:34:19.889Z,5.88
2022-12-26T07:36:47.802Z,6.07
2022-12-26T07:39:15.576Z,5.80
2022-12-26T07:41:59.717Z,5.45
2022-12-26T07:44:28.932Z,5.68
2022-12-26T07:46:58.482Z,5.30
2022-12-26T07:49:27.111Z,6.07
2022-12-26T07:51:54.887Z,5.93
2022-12-26T07:54:23.023Z,5.25
2022-12-26T07:56:51.000Z,5.32
2022-12-26T07:59:19.127Z,5.45
2022-12-26T08:01:47.076Z,5.28
2022-12-26T08:04:16.327Z,5.90
2022-12-26T08:06:44.138Z,5.43
2022-12-26T08:09:15.924Z,5.25
2022-12-26T08:11:44.184Z,5.80
2022-12-26T08:14:13.307Z,5.82
2022-12-26T08:16:41.310Z,5.35
2022-12-26T08:19:09.162Z,5.45
2022-12-26T08:21:38.513Z,6.22
2022-12-26T08:24:06.627Z,4.80
2022-12-26T08:26:34.491Z,5.05
2022-12-26T08:29:02.523Z,5.68
2022-12-26T08:31:31.912Z,4.72
2022-12-26T08:33:59.784Z,5.00
2022-12-26T08:36:27.576Z,4.82
2022-12-26T08:38:57.218Z,4.95
2022-12-26T08:41:25.084Z,4.55
2022-12-26T08:46:41.806Z,5.50
2022-12-26T08:49:09.588Z,5.03
2022-12-26T08:51:37.420Z,4.80
2022-12-26T08:54:07.244Z,5.45
2022-12-26T08:56:34.983Z,5.20
2022-12-26T08:59:02.748Z,5.68
2022-12-26T09:01:32.397Z,5.35
2022-12-26T09:04:02.732Z,5.03
2022-12-26T09:06:33.017Z,5.90
2022-12-26T09:09:01.579Z,6.18
2022-12-26T09:11:31.712Z,6.97
2022-12-26T09:14:02.778Z,5.47
2022-12-26T09:16:37.397Z,6.10
2022-12-26T09:19:07.211Z,5.65
2022-12-26T09:21:34.967Z,5.38
2022-12-26T09:24:05.694Z,4.53
2022-12-26T09:26:35.439Z,4.95
2022-12-26T09:29:03.836Z,5.20
2022-12-26T09:31:33.959Z,4.50
2022-12-26T09:34:02.836Z,5.15
2022-12-26T09:36:32.817Z,4.65
2022-12-26T09:39:00.975Z,4.90
2022-12-26T09:41:54.403Z,5.25
2022-12-26T09:44:26.923Z,5.72
2022-12-26T09:47:04.892Z,5.85
2022-12-26T09:49:35.752Z,6.20
2022-12-26T09:52:10.896Z,5.88
2022-12-26T09:54:43.862Z,6.45
2022-12-26T09:57:19.735Z,6.82
2022-12-26T09:59:52.921Z,6.95
2022-12-26T10:02:23.976Z,6.88
2022-12-26T10:04:52.560Z,7.40
2022-12-26T10:07:29.243Z,7.43
2022-12-26T10:10:09.125Z,7.20
2022-12-26T10:12:50.102Z,6.93
2022-12-26T10:15:39.292Z,7.60
2022-12-26T10:18:18.058Z,8.23
2022-12-26T10:20:59.709Z,7.55
2022-12-26T10:23:33.645Z,8.30
2022-12-26T10:26:09.215Z,8.68
2022-12-26T10:28:42.950Z,9.30
2022-12-26T10:31:17.623Z,10.88
2022-12-26T10:33:51.206Z,10.32
2022-12-26T10:36:28.036Z,10.35
2022-12-26T10:38:59.632Z,11.38
2022-12-26T10:41:29.522Z,11.50
2022-12-26T10:43:58.673Z,11.88
2022-12-26T10:46:43.809Z,13.00
2022-12-26T10:49:13.199Z,13.63
2022-12-26T10:51:41.187Z,13.90
2022-12-26T10:54:15.873Z,13.15
2022-12-26T10:56:46.447Z,13.57
2022-12-26T10:59:19.409Z,14.93
2022-12-26T11:01:50.665Z,15.02
2022-12-26T11:04:44.614Z,14.43
2022-12-26T11:07:11.990Z,14.70
2022-12-26T11:09:42.570Z,14.95
2022-12-26T11:12:21.759Z,15.60
2022-12-26T11:14:58.013Z,15.18
2022-12-26T11:17:28.968Z,15.68
2022-12-26T11:20:25.513Z,14.68
2022-12-26T11:22:53.912Z,15.88
2022-12-26T11:25:24.636Z,15.43
2022-12-26T11:27:54.307Z,15.32
2022-12-26T11:30:30.342Z,15.52
2022-12-26T11:33:15.166Z,15.07
2022-12-26T11:35:55.951Z,14.15
2022-12-26T11:38:42.457Z,14.98
2022-12-26T11:41:36.479Z,15.60
2022-12-26T11:44:16.791Z,15.90
2022-12-26T11:46:49.847Z,14.95
2022-12-26T11:49:21.454Z,14.68
2022-12-26T11:51:55.628Z,14.35
2022-12-26T11:54:30.770Z,13.93
2022-12-26T11:57:20.259Z,14.02
2022-12-26T11:59:49.035Z,14.45
2022-12-26T12:02:23.935Z,14.13
2022-12-26T12:04:54.748Z,14.43
2022-12-26T12:07:43.668Z,15.63
2022-12-26T12:10:49.464Z,13.27
2022-12-26T12:13:27.149Z,13.90
2022-12-26T12:16:01.136Z,13.18
2022-12-26T12:18:46.907Z,13.73
2022-12-26T12:21:22.206Z,12.80
2022-12-26T12:24:28.533Z,13.40
2022-12-26T12:27:05.140Z,14.75
2022-12-26T12:30:04.380Z,13.10
2022-12-26T12:32:44.921Z,12.90
2022-12-26T12:35:27.915Z,13.23
2022-12-26T12:38:15.324Z,13.80
2022-12-26T12:40:51.307Z,13.57
2022-12-26T12:43:28.351Z,12.77
2022-12-26T12:46:05.834Z,13.18
2022-12-26T12:48:56.802Z,13.45
2022-12-26T12:51:34.387Z,13.18
2022-12-26T12:54:44.674Z,13.25
2022-12-26T12:57:21.083Z,13.20
2022-12-26T13:00:03.175Z,13.60
2022-12-26T13:02:36.226Z,13.45
2022-12-26T13:05:16.056Z,12.93
2022-12-26T13:07:49.317Z,13.70
2022-12-26T13:10:22.129Z,12.77
2022-12-26T13:12:51.879Z,12.45
2022-12-26T13:15:30.929Z,13.70
2022-12-26T13:18:03.305Z,12.35
2022-12-26T13:20:39.285Z,12.73
2022-12-26T13:23:36.694Z,11.68
2022-12-26T13:26:12.303Z,11.98
2022-12-26T13:28:53.832Z,11.75
2022-12-26T13:31:22.327Z,12.38
2022-12-26T13:33:50.475Z,12.10
2022-12-26T13:36:43.832Z,12.70
2022-12-26T13:39:34.212Z,13.15
2022-12-26T13:42:24.167Z,12.10
2022-12-26T13:44:53.576Z,11.35
2022-12-26T13:47:36.328Z,11.82
2022-12-26T13:50:41.349Z,12.20
2022-12-26T13:53:29.526Z,11.95
2022-12-26T13:56:00.151Z,11.95
2022-12-26T13:58:51.041Z,11.40
2022-12-26T14:01:31.129Z,12.77
2022-12-26T14:04:18.636Z,11.75
2022-12-26T14:07:02.453Z,13.30
2022-12-26T14:09:43.369Z,12.73
2022-12-26T14:12:35.859Z,11.98
2022-12-26T14:15:18.590Z,11.82
2022-12-26T14:17:59.841Z,13.32
2022-12-26T14:20:41.773Z,13.60
2022-12-26T14:23:24.710Z,13.25
2022-12-26T14:26:03.385Z,12.45
2022-12-26T14:28:51.457Z,12.73
2022-12-26T14:31:25.847Z,13.48
2022-12-26T14:34:00.586Z,13.55
2022-12-26T14:36:39.891Z,13.40
2022-12-26T14:39:20.872Z,13.27
2022-12-26T14:42:55.630Z,13.52
2022-12-26T14:45:43.301Z,13.90
2022-12-26T14:48:47.794Z,12.82
2022-12-26T14:51:34.626Z,17.58
2022-12-26T14:54:38.558Z,13.80
2022-12-26T14:57:52.213Z,14.55
2022-12-26T15:00:34.493Z,14.57
2022-12-26T15:03:42.052Z,14.15
2022-12-26T15:06:46.392Z,13.48
2022-12-26T15:09:42.454Z,14.10
2022-12-26T15:12:45.374Z,14.98
2022-12-26T15:15:35.451Z,14.10
2022-12-26T15:18:31.042Z,14.60
2022-12-26T15:21:29.609Z,14.68
2022-12-26T15:24:15.480Z,15.05
2022-12-26T15:27:08.546Z,14.70
2022-12-26T15:29:53.581Z,14.73
2022-12-26T15:32:26.009Z,18.13
2022-12-26T15:35:03.828Z,16.58
2022-12-26T15:38:13.597Z,15.80
2022-12-26T15:40:45.585Z,16.58
2022-12-26T15:43:45.538Z,17.60
2022-12-26T15:46:21.496Z,16.85
2022-12-26T15:49:16.622Z,17.00
2022-12-26T15:51:56.291Z,17.20
2022-12-26T15:54:56.028Z,18.25
2022-12-26T15:57:35.157Z,18.02
2022-12-26T16:00:13.900Z,17.50
2022-12-26T16:02:48.992Z,17.60
2022-12-26T16:05:48.780Z,18.70
2022-12-26T16:08:35.644Z,18.35
2022-12-26T16:11:21.344Z,19.50
2022-12-26T16:13:59.418Z,18.15
2022-12-26T16:16:34.286Z,18.23
2022-12-26T16:19:18.831Z,18.05
2022-12-26T16:22:08.800Z,19.67
2022-12-26T16:24:38.393Z,18.38
2022-12-26T16:27:09.842Z,19.77
2022-12-26T16:29:45.949Z,18.92
2022-12-26T16:32:18.904Z,18.92
2022-12-26T16:34:48.354Z,18.23
2022-12-26T16:37:20.154Z,18.95
2022-12-26T16:40:06.965Z,18.42
2022-12-26T16:42:37.441Z,18.95
2022-12-26T16:45:19.724Z,19.20
2022-12-26T16:47:48.444Z,18.90
2022-12-26T16:50:18.737Z,19.58
2022-12-26T16:52:47.159Z,20.45
2022-12-26T16:55:27.135Z,20.02
2022-12-26T16:57:59.527Z,18.73
2022-12-26T17:00:27.606Z,18.40
2022-12-26T17:03:00.183Z,18.38
2022-12-26T17:05:30.992Z,18.70
2022-12-26T17:08:01.998Z,19.60
2022-12-26T17:10:32.413Z,19.75
2022-12-26T17:13:04.188Z,19.42
2022-12-26T17:15:35.481Z,19.52
2022-12-26T17:18:37.810Z,19.60
2022-12-26T17:21:27.081Z,19.85
2022-12-26T17:24:34.919Z,19.42
2022-12-26T17:27:16.170Z,20.30
2022-12-26T17:29:55.288Z,20.80
2022-12-26T17:32:44.466Z,19.42
2022-12-26T17:35:15.910Z,19.88
2022-12-26T17:37:44.572Z,21.48
2022-12-26T17:40:23.504Z,20.27
2022-12-26T17:42:53.322Z,20.55
2022-12-26T17:45:25.157Z,21.35
2022-12-26T17:47:54.087Z,19.73
2022-12-26T17:50:22.752Z,20.35
2022-12-26T17:52:51.520Z,21.20
2022-12-26T17:55:24.984Z,19.67
2022-12-26T17:57:53.530Z,20.27
2022-12-26T18:00:26.061Z,19.25
2022-12-26T18:02:54.039Z,19.80
2022-12-26T18:05:22.698Z,20.77
2022-12-26T18:07:52.872Z,20.92
2022-12-26T18:10:22.508Z,21.55
2022-12-26T18:12:51.442Z,20.52
2022-12-26T18:15:20.245Z,20.67
2022-12-26T18:17:51.566Z,21.17
2022-12-26T18:20:21.514Z,21.95
2022-12-26T18:22:49.332Z,20.95
2022-12-26T18:25:18.906Z,20.60
2022-12-26T18:27:47.688Z,20.92
2022-12-26T18:30:17.918Z,19.65
2022-12-26T18:32:46.820Z,20.70
2022-12-26T18:35:16.736Z,18.30
2022-12-26T18:37:47.905Z,20.65
2022-12-26T18:40:28.821Z,18.30
2022-12-26T18:42:56.915Z,17.05
2022-12-26T18:45:25.074Z,17.58
2022-12-26T18:47:53.131Z,17.70
2022-12-26T18:50:22.504Z,17.90
2022-12-26T18:52:53.778Z,17.90
2022-12-26T18:55:22.376Z,18.25
2022-12-26T18:57:50.258Z,17.50
2022-12-26T19:00:19.478Z,16.88
2022-12-26T19:02:48.490Z,16.80
2022-12-26T19:05:19.001Z,15.85
2022-12-26T19:07:50.188Z,17.67
2022-12-26T19:10:20.847Z,14.77
2022-12-26T19:12:48.663Z,15.48
2022-12-26T19:15:16.678Z,15.35
2022-12-26T19:17:44.674Z,14.77
2022-12-26T19:20:19.163Z,14.00
2022-12-26T19:22:50.034Z,12.88
2022-12-26T19:25:19.106Z,13.30
2022-12-26T19:27:48.171Z,13.13
2022-12-26T19:30:17.676Z,12.55
2022-12-26T19:32:45.973Z,11.88
2022-12-26T19:35:15.192Z,10.40
2022-12-26T19:37:43.614Z,8.40
2022-12-26T19:40:18.449Z,9.07
2022-12-26T19:42:49.103Z,9.18
2022-12-26T19:45:17.382Z,9.07
2022-12-26T19:47:45.904Z,9.55
2022-12-26T19:50:14.153Z,8.73
2022-12-26T19:52:42.016Z,8.55
2022-12-26T19:55:13.425Z,7.95
2022-12-26T19:57:41.260Z,6.60
2022-12-26T20:00:11.118Z,7.85
2022-12-26T20:02:39.010Z,7.00
2022-12-26T20:05:07.912Z,7.88
2022-12-26T20:07:36.059Z,6.78
2022-12-26T20:10:04.485Z,8.05
2022-12-26T20:12:33.633Z,8.05
2022-12-26T20:15:01.447Z,7.25
2022-12-26T20:17:29.212Z,6.15
2022-12-26T20:19:56.993Z,7.20
2022-12-26T20:22:24.735Z,7.38
2022-12-26T20:24:53.085Z,5.68
2022-12-26T20:27:20.903Z,5.32
2022-12-26T20:29:50.058Z,5.80
2022-12-26T20:32:17.892Z,5.95
2022-12-26T20:34:45.656Z,5.85
2022-12-26T20:37:13.502Z,5.13
2022-12-26T20:39:41.241Z,5.05
2022-12-26T20:42:09.059Z,5.25
2022-12-26T20:44:41.359Z,5.47
2022-12-26T20:47:10.770Z,5.47
2022-12-26T20:49:38.539Z,6.00
2022-12-26T20:52:06.358Z,6.28
2022-12-26T20:54:34.102Z,4.72
2022-12-26T20:57:02.922Z,5.50
2022-12-26T20:59:30.790Z,5.03
2022-12-26T21:01:58.668Z,5.47
2022-12-26T21:04:27.874Z,4.43
2022-12-26T21:06:56.891Z,4.80
2022-12-26T21:09:25.039Z,4.40
2022-12-26T21:11:52.903Z,4.53
2022-12-26T21:14:22.359Z,4.57
2022-12-26T21:16:52.820Z,4.45
2022-12-26T21:19:22.877Z,3.90
2022-12-26T21:21:54.532Z,4.55
2022-12-26T21:24:24.918Z,4.18
2022-12-26T21:26:53.106Z,5.18
2022-12-26T21:29:23.629Z,4.50
2022-12-26T21:31:53.079Z,4.32
2022-12-26T21:34:23.076Z,4.95
2022-12-26T21:37:10.781Z,4.10
2022-12-26T21:39:39.751Z,4.65
2022-12-26T21:42:08.993Z,3.95
2022-12-26T21:44:37.850Z,4.13
2022-12-26T21:47:08.050Z,4.30
2022-12-26T21:49:36.013Z,4.32
2022-12-26T21:52:06.026Z,3.55
2022-12-26T21:54:52.057Z,4.13
2022-12-26T21:57:19.959Z,3.85
2022-12-26T21:59:57.150Z,3.30
2022-12-26T22:02:47.028Z,3.90
2022-12-26T22:05:15.722Z,3.33
2022-12-26T22:07:45.196Z,4.00
2022-12-26T22:10:34.877Z,4.80
2022-12-26T22:13:02.752Z,3.20
2022-12-26T22:15:48.264Z,3.15
2022-12-26T22:18:17.336Z,3.08
2022-12-26T22:20:46.119Z,3.08
2022-12-26T22:23:15.624Z,3.50
2022-12-26T22:25:43.414Z,3.00
2022-12-26T22:28:11.402Z,2.88
2022-12-26T22:30:39.129Z,2.58
2022-12-26T22:33:06.931Z,3.00
2022-12-26T22:35:35.008Z,3.08
2022-12-26T22:38:03.221Z,3.05
2022-12-26T22:40:32.369Z,2.78
2022-12-26T22:43:00.300Z,2.70
2022-12-26T22:45:28.204Z,2.75
2022-12-26T22:47:56.106Z,3.08
2022-12-26T22:50:24.136Z,2.88
2022-12-26T22:52:52.320Z,2.80
2022-12-26T22:55:20.190Z,2.70
2022-12-26T22:57:52.558Z,2.70
2022-12-26T23:00:21.035Z,2.88
2022-12-26T23:02:48.955Z,2.90
2022-12-26T23:05:17.401Z,3.00
2022-12-26T23:07:45.796Z,3.22
2022-12-26T23:10:19.161Z,2.58
2022-12-26T23:12:51.259Z,2.83
2022-12-26T23:15:21.708Z,2.63
2022-12-26T23:18:27.615Z,3.05
2022-12-26T23:21:13.639Z,2.47
2022-12-26T23:23:42.050Z,2.22
2022-12-26T23:26:11.015Z,2.80
2022-12-26T23:34:29.434Z,2.50
2022-12-26T23:36:57.224Z,2.40
2022-12-26T23:39:24.939Z,2.95
2022-12-26T23:41:52.731Z,2.85
2022-12-26T23:44:22.013Z,2.55
2022-12-26T23:46:49.939Z,2.67
2022-12-26T23:49:18.017Z,2.25
2022-12-26T23:51:45.861Z,2.45
2022-12-26T23:54:13.603Z,2.38
2022-12-26T23:56:41.283Z,2.85
2022-12-26T23:59:09.194Z,2.95
